Time;durP1;ratioP1;P1;durP2;ratioP2;P2;SDS_P1;SDS_P2;PMS_P1;PMS_P2;Temp;Humidity;BMP_temperature;BMP_pressure;BME280_temperature;BME280_humidity;BME280_pressure;Samples;Min_cycle;Max_cycle;Signal;HPM_P1;HPM_P2
2023/09/27 00:02:22;;;;;;;8.20;5.70;;;17.40;93.20;;;;;;5024655;28;20028;-51
2023/09/27 00:04:48;;;;;;;7.72;5.65;;;17.40;93.30;;;;;;5024497;28;20129;-51
2023/09/27 00:07:13;;;;;;;8.13;5.05;;;17.40;93.30;;;;;;5024449;28;20425;-51
2023/09/27 00:09:39;;;;;;;10.85;5.60;;;17.40;93.30;;;;;;5006572;28;20034;-51
2023/09/27 00:12:05;;;;;;;7.30;5.60;;;17.40;93.30;;;;;;5024468;28;20026;-51
2023/09/27 00:14:31;;;;;;;8.57;5.80;;;17.30;93.30;;;;;;5009250;28;20042;-51
2023/09/27 00:16:58;;;;;;;6.93;4.63;;;17.40;93.40;;;;;;5009101;28;20058;-51
2023/09/27 00:19:24;;;;;;;7.70;5.00;;;17.30;93.40;;;;;;5024054;28;20038;-51
2023/09/27 00:21:49;;;;;;;8.65;6.75;;;17.40;93.40;;;;;;5007756;28;20037;-51
2023/09/27 00:24:15;;;;;;;7.53;5.93;;;17.40;93.40;;;;;;5024180;28;20030;-51
2023/09/27 00:26:41;;;;;;;8.23;6.38;;;17.30;93.30;;;;;;5007708;28;20053;-51
2023/09/27 00:29:06;;;;;;;9.23;6.75;;;17.30;93.30;;;;;;5009338;28;20356;-51
2023/09/27 00:31:32;;;;;;;10.00;6.68;;;17.30;93.40;;;;;;5024533;28;20470;-51
2023/09/27 00:33:58;;;;;;;8.48;6.50;;;17.30;93.40;;;;;;5024265;28;20118;-51
2023/09/27 00:36:23;;;;;;;9.98;6.45;;;17.30;93.40;;;;;;5024000;28;20034;-51
2023/09/27 00:38:49;;;;;;;7.93;6.13;;;17.30;93.50;;;;;;5008704;28;20057;-51
2023/09/27 00:41:14;;;;;;;7.68;5.90;;;17.30;93.50;;;;;;5008769;28;20077;-51
2023/09/27 00:43:40;;;;;;;9.82;5.60;;;17.30;93.60;;;;;;5007474;28;20084;-51
2023/09/27 00:46:06;;;;;;;8.25;6.15;;;17.20;93.60;;;;;;5023403;28;20022;-51
2023/09/27 00:48:32;;;;;;;9.38;5.78;;;17.20;93.60;;;;;;5008642;28;20088;-51
2023/09/27 00:50:58;;;;;;;7.85;5.55;;;17.20;93.70;;;;;;5023892;28;20034;-51
2023/09/27 00:53:25;;;;;;;7.63;5.60;;;17.40;93.70;;;;;;5023605;28;20482;-51
2023/09/27 00:55:51;;;;;;;7.32;5.82;;;17.20;93.70;;;;;;5007192;28;20110;-51
2023/09/27 00:58:20;;;;;;;7.45;5.75;;;17.20;93.70;;;;;;4990883;28;20014;-51
2023/09/27 01:00:50;;;;;;;10.55;7.13;;;17.10;93.70;;;;;;5023650;28;20026;-51
2023/09/27 01:03:16;;;;;;;7.53;6.45;;;17.10;93.60;;;;;;5023574;28;20037;-51
2023/09/27 01:05:42;;;;;;;8.98;6.40;;;17.20;93.70;;;;;;5023068;28;20027;-51
2023/09/27 01:08:07;;;;;;;8.35;6.35;;;17.10;93.60;;;;;;5006991;28;20022;-51
2023/09/27 01:10:34;;;;;;;9.48;6.38;;;17.10;93.70;;;;;;5023455;28;20482;-51
2023/09/27 01:12:59;;;;;;;8.20;5.60;;;17.10;93.70;;;;;;5023219;28;20081;-51
2023/09/27 01:15:25;;;;;;;8.70;5.95;;;17.10;93.80;;;;;;5006905;28;20414;-51
2023/09/27 01:17:54;;;;;;;7.95;5.72;;;17.00;93.70;;;;;;5023229;28;20561;-51
2023/09/27 01:20:20;;;;;;;9.18;6.13;;;17.00;93.70;;;;;;5022756;28;20109;-51
2023/09/27 01:22:59;;;;;;;8.80;5.90;;;17.00;93.70;;;;;;5007984;28;20093;-51
2023/09/27 01:25:35;;;;;;;7.03;5.57;;;17.00;93.70;;;;;;5007959;28;20034;-51
2023/09/27 01:28:02;;;;;;;10.82;5.50;;;17.00;93.80;;;;;;5007555;28;20057;-51
2023/09/27 01:30:34;;;;;;;9.15;5.88;;;17.00;93.70;;;;;;5022879;28;20034;-51
2023/09/27 01:33:00;;;;;;;8.65;6.15;;;17.00;93.80;;;;;;5007675;28;20054;-51
2023/09/27 01:35:25;;;;;;;9.80;6.07;;;17.00;93.80;;;;;;5007784;28;20030;-51
2023/09/27 01:37:51;;;;;;;7.75;6.30;;;17.00;93.80;;;;;;5007724;28;20041;-51
2023/09/27 01:40:18;;;;;;;7.32;6.28;;;16.90;94.10;;;;;;5007673;28;20463;-51
2023/09/27 01:42:44;;;;;;;7.95;5.78;;;16.90;93.80;;;;;;5007630;28;20378;-51
2023/09/27 01:45:12;;;;;;;10.60;5.80;;;16.90;94.10;;;;;;5007625;28;20063;-51
2023/09/27 01:47:38;;;;;;;9.52;5.72;;;16.90;93.80;;;;;;5006147;28;20509;-51
2023/09/27 01:50:06;;;;;;;7.88;5.90;;;16.90;93.80;;;;;;4990098;28;20027;-51
2023/09/27 01:52:32;;;;;;;10.32;5.60;;;16.90;93.80;;;;;;5006040;28;20061;-51
2023/09/27 01:54:57;;;;;;;8.98;5.78;;;16.80;93.80;;;;;;5007357;28;20030;-51
2023/09/27 01:57:23;;;;;;;10.43;5.72;;;16.90;93.80;;;;;;5007491;28;20391;-51
2023/09/27 01:59:48;;;;;;;8.95;5.22;;;16.80;93.80;;;;;;5022501;28;20038;-51
2023/09/27 02:02:14;;;;;;;11.15;6.43;;;16.80;93.80;;;;;;5007216;28;20020;-51
2023/09/27 02:04:39;;;;;;;11.40;6.60;;;16.80;93.90;;;;;;5007286;28;20076;-51
2023/09/27 02:07:05;;;;;;;10.82;6.55;;;16.80;93.90;;;;;;5007184;28;20029;-51
2023/09/27 02:09:31;;;;;;;10.98;6.45;;;16.80;94.00;;;;;;5022134;28;20031;-51
2023/09/27 02:11:56;;;;;;;12.73;6.38;;;16.80;94.00;;;;;;5005752;28;20030;-51
2023/09/27 02:14:22;;;;;;;11.55;6.45;;;16.80;94.00;;;;;;5007126;28;20034;-51
2023/09/27 02:16:47;;;;;;;13.68;6.97;;;16.80;94.00;;;;;;5006934;28;20030;-51
2023/09/27 02:19:13;;;;;;;14.63;6.85;;;16.80;94.10;;;;;;5022154;28;20054;-51
2023/09/27 02:21:39;;;;;;;16.63;6.65;;;16.70;94.00;;;;;;5022162;28;20026;-51
2023/09/27 02:24:06;;;;;;;8.63;6.10;;;16.80;94.10;;;;;;5006921;28;20038;-51
2023/09/27 02:26:31;;;;;;;8.93;6.18;;;16.70;94.00;;;;;;5005372;28;20034;-51
2023/09/27 02:28:57;;;;;;;9.60;6.57;;;16.70;94.00;;;;;;5022095;28;20042;-51
2023/09/27 02:31:23;;;;;;;10.65;6.78;;;16.70;94.00;;;;;;5021664;28;20022;-51
2023/09/27 02:33:49;;;;;;;12.15;6.40;;;16.70;94.40;;;;;;5005389;28;20118;-51
2023/09/27 02:36:14;;;;;;;14.45;6.65;;;16.70;94.10;;;;;;5021960;28;20034;-51
2023/09/27 02:38:40;;;;;;;9.77;6.60;;;16.70;94.10;;;;;;5021852;28;20037;-51
2023/09/27 02:41:06;;;;;;;13.20;7.05;;;16.70;94.10;;;;;;5006742;28;20462;-51
2023/09/27 02:43:31;;;;;;;12.27;7.03;;;16.70;94.10;;;;;;4989249;28;20030;-51
2023/09/27 02:45:57;;;;;;;11.75;7.28;;;16.70;94.10;;;;;;5006530;28;20027;-51
2023/09/27 02:48:23;;;;;;;12.98;7.00;;;16.60;94.10;;;;;;5022117;28;20018;-51
2023/09/27 02:50:49;;;;;;;15.20;8.45;;;16.60;94.10;;;;;;5021616;28;20023;-51
2023/09/27 02:53:15;;;;;;;14.00;7.05;;;16.70;94.20;;;;;;5021638;28;20028;-51
2023/09/27 02:55:41;;;;;;;11.95;7.50;;;16.60;94.10;;;;;;5021584;28;20046;-51
2023/09/27 02:58:07;;;;;;;18.63;8.38;;;16.60;94.10;;;;;;5021659;28;20178;-50
2023/09/27 03:00:33;;;;;;;12.27;7.63;;;16.60;94.10;;;;;;5006571;28;20037;-51
2023/09/27 03:03:00;;;;;;;14.00;8.15;;;16.60;94.10;;;;;;5005305;28;20045;-51
2023/09/27 03:05:26;;;;;;;18.15;8.77;;;16.50;94.10;;;;;;5021496;28;20050;-51
2023/09/27 03:07:51;;;;;;;20.52;8.20;;;16.50;94.10;;;;;;4988820;28;20042;-51
2023/09/27 03:10:18;;;;;;;14.88;8.40;;;16.50;94.20;;;;;;5006539;28;20035;-51
2023/09/27 03:12:46;;;;;;;12.55;8.88;;;16.50;94.10;;;;;;5005210;28;20032;-51
2023/09/27 03:15:12;;;;;;;15.38;8.82;;;16.50;94.10;;;;;;4988753;28;20050;-51
2023/09/27 03:17:39;;;;;;;15.25;8.32;;;16.40;94.10;;;;;;5021380;28;20030;-51
2023/09/27 03:20:08;;;;;;;17.27;8.98;;;16.40;94.10;;;;;;5006164;28;20038;-51
2023/09/27 03:22:34;;;;;;;19.08;8.98;;;16.40;94.10;;;;;;5006305;28;20538;-51
2023/09/27 03:25:00;;;;;;;13.85;9.05;;;16.40;94.20;;;;;;5021390;28;20047;-51
2023/09/27 03:27:25;;;;;;;14.10;8.80;;;16.40;94.20;;;;;;4988581;28;20117;-51
2023/09/27 03:29:51;;;;;;;13.38;9.43;;;16.40;94.20;;;;;;4988728;28;20495;-51
2023/09/27 03:32:16;;;;;;;13.82;8.25;;;16.30;94.10;;;;;;5021308;28;20022;-51
2023/09/27 03:34:42;;;;;;;12.68;7.95;;;16.40;94.10;;;;;;5021348;28;20033;-51
2023/09/27 03:37:08;;;;;;;14.50;7.55;;;16.30;94.10;;;;;;5021401;28;20081;-51
2023/09/27 03:39:35;;;;;;;14.20;8.07;;;16.40;94.20;;;;;;4988708;28;20046;-51
2023/09/27 03:42:02;;;;;;;15.25;7.97;;;16.30;94.10;;;;;;5006341;28;20030;-51
2023/09/27 03:44:28;;;;;;;10.43;7.05;;;16.30;94.10;;;;;;5024266;28;20050;-51
2023/09/27 03:46:53;;;;;;;9.90;6.88;;;16.30;94.10;;;;;;5024908;28;20026;-51
2023/09/27 03:49:19;;;;;;;14.93;7.53;;;16.30;94.10;;;;;;5009717;28;20041;-51
2023/09/27 03:51:44;;;;;;;13.95;7.65;;;16.40;94.10;;;;;;5024834;28;20462;-51
2023/09/27 03:54:10;;;;;;;15.30;7.15;;;16.30;94.10;;;;;;5009726;28;20038;-51
2023/09/27 03:56:35;;;;;;;11.02;7.25;;;16.30;94.10;;;;;;5008377;28;20367;-51
2023/09/27 03:59:01;;;;;;;13.43;7.22;;;16.30;94.00;;;;;;5024734;28;20030;-51
2023/09/27 04:01:26;;;;;;;15.63;7.82;;;16.30;94.10;;;;;;5009425;28;20069;-51
2023/09/27 04:03:52;;;;;;;11.05;6.80;;;16.20;94.10;;;;;;5024654;28;20387;-51
2023/09/27 04:06:17;;;;;;;10.80;7.10;;;16.20;94.00;;;;;;5007986;28;20478;-51
2023/09/27 04:08:43;;;;;;;12.30;7.30;;;16.20;94.00;;;;;;5008132;28;20026;-51
2023/09/27 04:11:09;;;;;;;11.80;7.25;;;16.20;94.00;;;;;;5009310;28;20026;-51
2023/09/27 04:13:35;;;;;;;10.55;6.80;;;16.20;94.00;;;;;;5024322;28;20091;-51
2023/09/27 04:16:01;;;;;;;13.98;6.93;;;16.20;94.10;;;;;;5024457;28;20398;-51
2023/09/27 04:18:27;;;;;;;9.82;7.20;;;16.10;94.10;;;;;;5007823;28;20022;-51
2023/09/27 04:20:53;;;;;;;17.27;6.85;;;16.20;94.10;;;;;;5009096;28;20057;-51
2023/09/27 04:23:18;;;;;;;13.40;6.15;;;16.10;94.10;;;;;;5007647;28;20023;-51
2023/09/27 04:25:44;;;;;;;11.07;6.63;;;16.10;94.10;;;;;;5009166;28;20034;-51
2023/09/27 04:28:10;;;;;;;11.85;6.47;;;16.10;94.10;;;;;;5022612;28;20033;-51
2023/09/27 04:30:36;;;;;;;13.52;6.28;;;16.10;94.10;;;;;;5026444;28;20022;-51
2023/09/27 04:33:01;;;;;;;16.02;7.03;;;15.70;94.00;;;;;;5013013;28;20049;-51
2023/09/27 04:35:27;;;;;;;21.70;7.25;;;16.10;94.10;;;;;;5023514;28;20041;-51
2023/09/27 04:37:53;;;;;;;19.98;7.80;;;16.00;94.20;;;;;;5007936;28;20037;-51
2023/09/27 04:40:19;;;;;;;23.17;7.88;;;16.00;94.20;;;;;;5007142;28;20041;-51
2023/09/27 04:42:45;;;;;;;23.08;8.10;;;16.00;94.20;;;;;;5039131;28;20049;-51
2023/09/27 04:45:11;;;;;;;26.52;8.50;;;16.00;94.20;;;;;;5008613;28;20066;-51
2023/09/27 04:47:37;;;;;;;22.55;7.00;;;16.00;94.20;;;;;;5008771;28;20039;-51
2023/09/27 04:50:03;;;;;;;22.42;7.57;;;16.00;94.20;;;;;;5023805;28;20034;-51
2023/09/27 04:52:29;;;;;;;23.30;8.02;;;16.00;94.20;;;;;;5008552;28;20073;-51
2023/09/27 04:54:57;;;;;;;22.70;8.45;;;15.90;94.10;;;;;;5022994;28;20022;-51
2023/09/27 04:57:26;;;;;;;32.70;8.93;;;15.90;94.20;;;;;;5023184;28;20022;-52
2023/09/27 04:59:52;;;;;;;35.35;9.25;;;15.90;94.20;;;;;;5023049;28;20038;-51
2023/09/27 05:02:19;;;;;;;41.63;9.68;;;15.90;94.20;;;;;;5023462;28;20115;-51
2023/09/27 05:04:45;;;;;;;41.35;9.23;;;15.90;94.10;;;;;;5023337;28;20030;-51
2023/09/27 05:07:11;;;;;;;44.53;9.00;;;15.90;94.40;;;;;;5023189;28;20038;-51
2023/09/27 05:09:37;;;;;;;29.98;8.90;;;15.90;94.10;;;;;;5008312;28;20041;-51
2023/09/27 05:12:03;;;;;;;37.00;10.18;;;15.90;94.10;;;;;;5022623;28;20025;-51
2023/09/27 05:14:29;;;;;;;31.90;8.38;;;15.90;94.10;;;;;;5026186;28;20061;-51
2023/09/27 05:16:54;;;;;;;32.78;8.27;;;15.90;94.10;;;;;;5042322;28;20070;-51
2023/09/27 05:19:20;;;;;;;31.63;8.60;;;15.80;94.00;;;;;;5026355;28;20045;-51
2023/09/27 05:21:45;;;;;;;37.35;9.85;;;15.90;94.10;;;;;;5040251;28;20030;-51
2023/09/27 05:24:11;;;;;;;35.85;10.63;;;15.90;94.10;;;;;;5041148;28;20037;-51
2023/09/27 05:26:36;;;;;;;45.30;10.85;;;15.80;94.20;;;;;;5012381;28;20037;-51
2023/09/27 05:29:02;;;;;;;30.52;10.30;;;15.80;94.20;;;;;;5026288;28;20034;-53
2023/09/27 05:31:28;;;;;;;31.10;8.85;;;15.80;94.20;;;;;;5025565;28;20021;-51
2023/09/27 05:33:53;;;;;;;28.67;8.68;;;15.90;94.20;;;;;;5031899;28;20521;-51
2023/09/27 05:36:19;;;;;;;28.02;8.95;;;15.70;94.30;;;;;;5039683;28;20112;-51
2023/09/27 05:38:46;;;;;;;29.02;8.40;;;15.70;94.30;;;;;;5026269;28;20328;-53
2023/09/27 05:41:11;;;;;;;30.80;9.20;;;15.70;94.30;;;;;;5025919;28;20062;-53
2023/09/27 05:43:37;;;;;;;35.05;9.95;;;15.70;94.40;;;;;;5040349;28;20500;-51
2023/09/27 05:46:02;;;;;;;29.60;9.48;;;15.70;94.40;;;;;;5025188;28;20034;-51
2023/09/27 05:48:28;;;;;;;31.27;9.18;;;15.80;94.50;;;;;;5021317;28;20036;-51
2023/09/27 05:50:54;;;;;;;39.17;9.73;;;15.70;94.50;;;;;;5041499;28;20040;-51
2023/09/27 05:53:20;;;;;;;37.80;9.48;;;15.70;94.50;;;;;;5042200;28;20022;-51
2023/09/27 05:55:47;;;;;;;30.40;9.32;;;15.70;94.60;;;;;;5025628;28;20022;-51
2023/09/27 05:58:13;;;;;;;21.83;8.55;;;15.70;94.60;;;;;;5026863;28;20022;-51
2023/09/27 06:00:40;;;;;;;32.03;9.02;;;15.60;94.60;;;;;;5027152;28;20042;-51
2023/09/27 06:03:07;;;;;;;31.95;9.25;;;15.70;94.70;;;;;;5021232;28;20034;-51
2023/09/27 06:05:32;;;;;;;16.63;8.60;;;15.60;94.70;;;;;;5029848;28;20117;-51
2023/09/27 06:07:58;;;;;;;27.38;9.10;;;15.70;94.80;;;;;;5025308;28;20102;-51
2023/09/27 06:10:24;;;;;;;28.30;9.07;;;15.60;94.80;;;;;;5025071;28;20033;-51
2023/09/27 06:12:50;;;;;;;32.35;8.98;;;15.60;94.90;;;;;;5008663;28;20022;-51
2023/09/27 06:15:17;;;;;;;23.40;9.63;;;15.60;95.00;;;;;;5023227;28;20056;-50
2023/09/27 06:17:43;;;;;;;31.23;9.18;;;15.60;95.00;;;;;;5024949;28;20026;-51
2023/09/27 06:20:11;;;;;;;30.48;9.10;;;15.60;95.00;;;;;;5023589;28;20042;-51
2023/09/27 06:22:39;;;;;;;27.65;9.63;;;15.60;95.10;;;;;;5023905;28;20030;-52
2023/09/27 06:25:05;;;;;;;17.92;9.18;;;15.60;95.10;;;;;;5025029;28;20366;-51
2023/09/27 06:27:31;;;;;;;25.65;9.93;;;15.60;95.20;;;;;;5026235;28;20037;-51
2023/09/27 06:29:56;;;;;;;23.05;8.75;;;15.70;95.30;;;;;;5025213;28;20034;-52
2023/09/27 06:32:22;;;;;;;23.20;10.25;;;15.60;95.30;;;;;;5007836;28;20032;-51
2023/09/27 06:34:48;;;;;;;21.58;9.52;;;15.60;95.50;;;;;;5026413;28;20026;-51
2023/09/27 06:37:14;;;;;;;25.13;9.50;;;15.60;95.60;;;;;;5023333;28;20029;-51
2023/09/27 06:39:41;;;;;;;16.45;9.50;;;15.60;95.60;;;;;;5022497;28;20101;-51
2023/09/27 06:42:06;;;;;;;15.00;9.48;;;15.60;95.70;;;;;;5024068;28;20036;-51
2023/09/27 06:44:33;;;;;;;25.25;10.65;;;15.60;95.80;;;;;;5007961;28;20382;-51
2023/09/27 06:46:59;;;;;;;19.20;9.95;;;15.60;95.90;;;;;;5024615;28;20056;-51
2023/09/27 06:49:25;;;;;;;18.63;9.80;;;15.60;96.00;;;;;;5011020;28;20034;-51
2023/09/27 06:51:51;;;;;;;18.35;9.48;;;15.60;96.00;;;;;;5021681;28;20068;-51
2023/09/27 06:54:16;;;;;;;12.85;9.75;;;15.60;96.00;;;;;;5024275;28;20050;-51
2023/09/27 06:56:42;;;;;;;15.60;9.55;;;15.60;96.00;;;;;;5025777;28;20076;-51
2023/09/27 06:59:08;;;;;;;24.98;9.75;;;15.60;96.00;;;;;;5023349;28;20057;-51
2023/09/27 07:01:33;;;;;;;20.50;10.50;;;15.60;96.00;;;;;;5008376;28;20033;-51
2023/09/27 07:04:03;;;;;;;15.50;10.65;;;15.70;96.10;;;;;;5024286;28;20037;-51
2023/09/27 07:06:28;;;;;;;22.77;10.13;;;15.70;96.20;;;;;;5013614;28;20040;-51
2023/09/27 07:08:57;;;;;;;26.23;10.80;;;15.70;96.20;;;;;;5022251;28;20072;-51
2023/09/27 07:11:23;;;;;;;29.33;10.65;;;15.70;96.20;;;;;;5022434;28;20026;-51
2023/09/27 07:13:49;;;;;;;19.25;10.25;;;15.70;96.20;;;;;;5023265;28;20129;-51
2023/09/27 07:16:25;;;;;;;20.38;10.30;;;15.70;96.20;;;;;;5006631;28;20030;-51
2023/09/27 07:18:51;;;;;;;21.10;9.85;;;15.80;96.20;;;;;;5025150;28;20109;-51
2023/09/27 07:21:19;;;;;;;81.90;16.70;;;15.80;96.20;;;;;;5026220;28;20033;-51
2023/09/27 07:23:47;;;;;;;29.45;10.38;;;15.80;96.30;;;;;;5027002;28;20029;-51
2023/09/27 07:26:13;;;;;;;22.25;10.90;;;15.80;96.30;;;;;;5037568;28;20030;-51
2023/09/27 07:28:39;;;;;;;48.80;14.15;;;15.80;96.30;;;;;;5034266;28;20025;-51
2023/09/27 07:31:05;;;;;;;31.80;13.10;;;15.80;96.50;;;;;;5020699;28;20347;-51
2023/09/27 07:33:31;;;;;;;35.92;12.07;;;15.80;96.60;;;;;;5025968;28;20053;-51
2023/09/27 07:35:58;;;;;;;31.75;12.73;;;15.80;96.60;;;;;;5027510;28;20026;-51
2023/09/27 07:38:24;;;;;;;42.38;13.18;;;15.80;96.50;;;;;;5026396;28;20030;-51
2023/09/27 07:40:50;;;;;;;45.80;12.75;;;15.80;96.50;;;;;;5029487;28;20041;-51
2023/09/27 07:43:15;;;;;;;40.47;12.65;;;16.00;96.60;;;;;;5027944;28;20018;-51
2023/09/27 07:45:43;;;;;;;53.55;12.70;;;15.90;96.70;;;;;;5025773;28;20030;-51
2023/09/27 07:48:08;;;;;;;45.42;12.90;;;16.00;96.70;;;;;;5023931;28;20017;-52
2023/09/27 07:50:37;;;;;;;45.67;12.38;;;15.90;96.70;;;;;;5027117;28;20528;-52
2023/09/27 07:53:03;;;;;;;40.50;13.18;;;16.00;96.60;;;;;;5040181;28;20086;-51
2023/09/27 07:55:32;;;;;;;45.97;13.27;;;16.00;96.60;;;;;;5017451;28;20056;-51
2023/09/27 07:57:58;;;;;;;38.42;13.38;;;16.00;96.70;;;;;;5026376;28;20113;-51
2023/09/27 08:00:33;;;;;;;36.08;12.90;;;16.00;96.80;;;;;;5025393;28;20073;-51
2023/09/27 08:02:58;;;;;;;40.85;12.63;;;16.00;96.70;;;;;;5025222;28;20034;-51
2023/09/27 08:05:24;;;;;;;37.92;12.98;;;16.00;96.80;;;;;;5012142;28;20030;-51
2023/09/27 08:07:50;;;;;;;33.05;12.65;;;15.90;96.70;;;;;;5025059;28;20030;-51
2023/09/27 08:10:17;;;;;;;39.42;12.55;;;16.00;96.70;;;;;;5037490;28;20022;-51
2023/09/27 08:12:43;;;;;;;38.75;13.25;;;16.00;96.70;;;;;;5025555;28;20030;-51
2023/09/27 08:15:09;;;;;;;47.17;13.38;;;16.10;96.70;;;;;;5026036;28;20120;-51
2023/09/27 08:17:35;;;;;;;40.90;14.00;;;16.10;96.70;;;;;;5008229;28;21185;-50
2023/09/27 08:20:05;;;;;;;47.25;13.73;;;16.10;96.70;;;;;;5006741;28;20034;-51
2023/09/27 08:22:33;;;;;;;36.38;12.85;;;16.10;96.80;;;;;;5030971;28;20108;-51
2023/09/27 08:24:58;;;;;;;44.95;14.52;;;16.10;96.80;;;;;;5037606;28;21668;-51
2023/09/27 08:27:24;;;;;;;35.17;13.13;;;16.10;96.80;;;;;;5028965;28;20633;-51
2023/09/27 08:29:50;;;;;;;48.50;15.43;;;16.10;96.90;;;;;;5020609;28;20030;-51
2023/09/27 08:32:15;;;;;;;43.28;13.65;;;16.20;97.00;;;;;;5007315;28;20033;-52
2023/09/27 08:34:41;;;;;;;67.30;14.70;;;16.10;97.00;;;;;;5048002;28;20474;-51
2023/09/27 08:37:07;;;;;;;50.60;13.02;;;16.20;97.10;;;;;;5021745;28;20037;-51
2023/09/27 08:39:32;;;;;;;75.20;17.02;;;16.20;97.00;;;;;;5026009;28;20034;-51
2023/09/27 08:41:58;;;;;;;57.17;15.65;;;16.20;97.10;;;;;;5021405;28;20037;-51
2023/09/27 08:44:24;;;;;;;55.78;14.23;;;16.30;97.30;;;;;;5032016;28;20116;-51
2023/09/27 08:46:50;;;;;;;59.05;15.48;;;16.20;97.10;;;;;;5012638;28;20022;-51
2023/09/27 08:49:17;;;;;;;76.72;17.58;;;16.20;97.00;;;;;;5008049;28;20093;-51
2023/09/27 08:51:42;;;;;;;98.40;18.80;;;16.30;97.50;;;;;;5034157;28;20512;-51
2023/09/27 08:54:08;;;;;;;93.38;20.00;;;16.30;97.40;;;;;;5024423;28;20097;-51
2023/09/27 08:56:33;;;;;;;60.80;16.00;;;16.30;97.40;;;;;;5009666;28;20045;-51
2023/09/27 08:59:00;;;;;;;52.95;15.70;;;16.30;96.90;;;;;;5006979;28;20025;-51
2023/09/27 09:01:25;;;;;;;47.72;13.93;;;16.30;96.90;;;;;;5009882;28;20081;-51
2023/09/27 09:03:52;;;;;;;56.53;14.50;;;16.30;96.90;;;;;;5016182;28;20061;-51
2023/09/27 09:06:18;;;;;;;54.50;14.15;;;16.30;97.10;;;;;;5008455;28;20124;-51
2023/09/27 09:08:44;;;;;;;55.80;14.85;;;16.40;96.90;;;;;;5025715;28;20468;-51
2023/09/27 09:11:10;;;;;;;101.78;19.73;;;16.40;97.00;;;;;;5056759;28;20034;-51
2023/09/27 09:14:03;;;;;;;71.05;15.13;;;16.40;97.10;;;;;;5029945;28;20022;-51
2023/09/27 09:16:51;;;;;;;54.92;13.65;;;16.40;97.00;;;;;;5039062;28;20490;-51
2023/09/27 09:19:22;;;;;;;54.30;14.57;;;16.50;97.10;;;;;;5025389;28;20045;-51
2023/09/27 09:22:03;;;;;;;39.88;12.93;;;16.50;97.20;;;;;;5023712;28;20095;-51
2023/09/27 09:24:28;;;;;;;57.20;15.52;;;16.50;97.20;;;;;;5021260;28;20036;-51
2023/09/27 09:27:16;;;;;;;69.82;15.57;;;16.50;97.30;;;;;;5030299;28;20025;-51
2023/09/27 09:29:52;;;;;;;44.42;13.73;;;16.50;97.70;;;;;;5019925;28;20535;-51
2023/09/27 09:32:25;;;;;;;52.30;13.90;;;16.50;97.90;;;;;;5050159;28;20040;-51
2023/09/27 09:34:52;;;;;;;46.33;13.15;;;16.60;98.00;;;;;;5032652;28;20034;-51
2023/09/27 09:37:27;;;;;;;39.92;12.57;;;16.60;97.90;;;;;;5023305;28;20026;-51
2023/09/27 09:39:53;;;;;;;60.17;14.30;;;16.60;98.00;;;;;;5008160;28;20030;-51
2023/09/27 09:42:32;;;;;;;100.82;16.50;;;16.60;98.10;;;;;;5037288;28;20548;-51
2023/09/27 09:45:10;;;;;;;47.47;13.23;;;16.60;98.10;;;;;;5040070;28;20034;-51
2023/09/27 09:47:36;;;;;;;46.30;12.43;;;16.60;98.30;;;;;;5029923;28;20033;-51
2023/09/27 09:50:06;;;;;;;43.05;11.30;;;16.70;98.40;;;;;;5024942;28;20232;-51
2023/09/27 09:52:32;;;;;;;47.80;11.60;;;16.70;98.30;;;;;;5033393;28;20033;-51
2023/09/27 09:54:58;;;;;;;39.40;10.88;;;16.70;98.20;;;;;;5024478;28;20050;-51
2023/09/27 09:57:32;;;;;;;52.83;11.93;;;16.70;98.10;;;;;;5024564;28;20025;-51
2023/09/27 10:00:01;;;;;;;66.50;13.93;;;16.70;98.10;;;;;;5024692;28;20045;-51
2023/09/27 10:02:31;;;;;;;51.47;12.05;;;16.70;98.30;;;;;;5057948;28;20049;-51
2023/09/27 10:04:56;;;;;;;41.88;11.30;;;16.70;98.20;;;;;;5039106;28;20049;-51
2023/09/27 10:07:25;;;;;;;50.40;11.52;;;16.80;98.40;;;;;;4991330;28;20022;-51
2023/09/27 10:09:52;;;;;;;62.88;13.13;;;16.80;98.40;;;;;;5040712;28;20034;-51
2023/09/27 10:12:17;;;;;;;43.03;11.20;;;16.80;98.40;;;;;;5025720;28;20026;-51
2023/09/27 10:14:43;;;;;;;45.60;11.98;;;16.90;98.50;;;;;;5038508;28;20027;-52
2023/09/27 10:17:22;;;;;;;40.10;11.48;;;16.90;98.30;;;;;;5047347;28;20026;-51
2023/09/27 10:20:11;;;;;;;57.67;14.23;;;16.90;98.40;;;;;;5009523;28;20026;-51
2023/09/27 10:22:37;;;;;;;35.42;11.27;;;16.90;98.60;;;;;;5023947;28;20026;-51
2023/09/27 10:25:03;;;;;;;53.30;13.20;;;17.00;98.60;;;;;;5025666;28;20074;-51
2023/09/27 10:28:06;;;;;;;52.08;11.18;;;17.00;98.60;;;;;;5023097;28;21380;-51
2023/09/27 10:30:41;;;;;;;54.50;11.82;;;17.00;98.70;;;;;;5023968;28;20036;-51
2023/09/27 10:33:16;;;;;;;61.57;11.37;;;17.10;98.90;;;;;;5025474;28;20110;-51
2023/09/27 10:36:00;;;;;;;50.22;12.82;;;17.10;98.70;;;;;;5024760;28;20036;-51
2023/09/27 10:38:42;;;;;;;54.00;13.05;;;17.10;98.50;;;;;;5023178;28;20045;-51
2023/09/27 10:41:08;;;;;;;81.57;13.00;;;17.10;98.50;;;;;;5034492;28;20068;-51
2023/09/27 10:43:38;;;;;;;63.65;13.77;;;17.10;98.50;;;;;;5022247;28;20026;-52
2023/09/27 10:46:04;;;;;;;53.10;11.07;;;17.20;98.50;;;;;;5024692;28;20029;-51
2023/09/27 10:48:30;;;;;;;36.22;10.15;;;17.20;98.30;;;;;;5024454;28;20081;-51
2023/09/27 10:50:56;;;;;;;47.63;10.85;;;17.20;98.10;;;;;;5012547;28;20041;-51
2023/09/27 10:53:29;;;;;;;74.07;13.68;;;17.30;98.00;;;;;;5019820;28;20046;-51
2023/09/27 10:55:55;;;;;;;42.45;10.27;;;17.30;97.90;;;;;;5024377;28;20042;-51
2023/09/27 10:58:21;;;;;;;46.45;10.32;;;17.30;97.70;;;;;;5012429;28;20228;-50
2023/09/27 11:00:56;;;;;;;63.83;11.77;;;17.40;97.60;;;;;;5004710;28;20051;-51
2023/09/27 11:03:23;;;;;;;36.15;10.18;;;17.40;97.50;;;;;;5023816;28;20441;-51
2023/09/27 11:05:49;;;;;;;40.90;9.68;;;17.40;97.40;;;;;;5040647;28;20050;-52
2023/09/27 11:08:24;;;;;;;41.42;8.98;;;17.50;97.30;;;;;;5032460;28;20034;-52
2023/09/27 11:10:52;;;;;;;46.67;10.20;;;17.50;97.30;;;;;;5026216;28;20493;-51
2023/09/27 11:13:18;;;;;;;45.25;9.63;;;17.60;97.60;;;;;;5034754;28;20053;-52
2023/09/27 11:15:44;;;;;;;45.50;8.50;;;17.60;97.30;;;;;;5022637;28;20128;-51
2023/09/27 11:18:10;;;;;;;27.73;8.95;;;17.60;97.20;;;;;;5030013;28;20029;-51
2023/09/27 11:20:36;;;;;;;41.42;9.60;;;17.70;97.10;;;;;;5008817;28;20038;-51
2023/09/27 11:23:02;;;;;;;38.88;8.98;;;17.70;97.30;;;;;;5023828;28;20038;-51
2023/09/27 11:25:41;;;;;;;29.25;8.38;;;17.80;97.40;;;;;;5020713;28;20050;-51
2023/09/27 11:28:13;;;;;;;60.05;10.65;;;17.80;97.40;;;;;;5024264;28;20053;-51
2023/09/27 11:30:39;;;;;;;39.95;8.77;;;17.90;97.30;;;;;;5027398;28;20031;-50
2023/09/27 11:33:05;;;;;;;30.13;9.02;;;17.90;97.20;;;;;;5020285;28;20026;-50
2023/09/27 11:35:31;;;;;;;39.17;9.20;;;18.00;97.10;;;;;;5036676;28;20053;-51
2023/09/27 11:38:09;;;;;;;33.97;9.23;;;18.00;97.10;;;;;;5022720;28;20034;-51
2023/09/27 11:40:35;;;;;;;39.38;8.80;;;18.10;97.00;;;;;;5017260;28;20033;-51
2023/09/27 11:43:03;;;;;;;29.05;7.68;;;18.10;96.90;;;;;;5021918;28;20029;-51
2023/09/27 11:45:43;;;;;;;34.42;8.93;;;18.10;96.80;;;;;;5018356;28;20026;-50
2023/09/27 11:48:09;;;;;;;52.72;10.25;;;18.10;96.80;;;;;;5002338;28;20049;-51
2023/09/27 11:50:35;;;;;;;58.30;10.07;;;18.20;96.80;;;;;;5019805;28;20152;-51
2023/09/27 11:53:00;;;;;;;52.08;10.10;;;18.30;96.70;;;;;;5018876;28;20018;-52
2023/09/27 11:55:26;;;;;;;78.22;11.00;;;18.30;96.60;;;;;;5020646;28;20246;-51
2023/09/27 11:57:56;;;;;;;54.85;10.30;;;18.40;96.60;;;;;;5017319;28;20080;-51
2023/09/27 12:00:22;;;;;;;67.25;10.48;;;18.50;96.50;;;;;;5021605;28;20084;-51
2023/09/27 12:02:48;;;;;;;63.22;11.38;;;18.60;96.30;;;;;;5020747;28;20026;-50
2023/09/27 12:05:14;;;;;;;41.20;9.18;;;18.60;96.10;;;;;;5022014;28;20088;-51
2023/09/27 12:07:39;;;;;;;64.00;11.15;;;18.60;96.10;;;;;;5023176;28;20026;-51
2023/09/27 12:10:05;;;;;;;54.40;10.80;;;18.70;96.10;;;;;;5025291;28;20085;-51
2023/09/27 12:12:31;;;;;;;49.35;10.07;;;18.60;96.10;;;;;;5026933;28;20041;-51
2023/09/27 12:14:56;;;;;;;63.83;10.73;;;18.70;96.10;;;;;;5033996;28;20037;-51
2023/09/27 12:17:22;;;;;;;61.28;12.20;;;18.80;96.10;;;;;;5027393;28;20022;-51
2023/09/27 12:19:47;;;;;;;75.30;12.05;;;18.80;96.00;;;;;;5030364;28;20533;-51
2023/09/27 12:22:13;;;;;;;76.65;13.38;;;18.90;95.90;;;;;;5025343;28;20125;-51
2023/09/27 12:24:39;;;;;;;114.93;19.33;;;18.90;95.80;;;;;;5031799;28;20030;-51
2023/09/27 12:27:04;;;;;;;137.20;19.00;;;19.00;95.70;;;;;;5026027;28;20537;-51
2023/09/27 12:29:30;;;;;;;87.47;13.82;;;19.10;95.50;;;;;;5023611;28;20056;-51
2023/09/27 12:31:55;;;;;;;161.65;22.20;;;19.20;95.00;;;;;;5023053;28;20473;-51
2023/09/27 12:34:21;;;;;;;147.25;19.88;;;19.30;95.00;;;;;;5025101;28;20033;-51